sensor_id;sensor_type;location;lat;lon;timestamp;P1;durP1;ratioP1;P2;durP2;ratioP2
35366;SDS011;21465;52.278;20.962;2023-07-13T14:35:15;3.75;;;3.30;;
35366;SDS011;21465;52.278;20.962;2023-07-13T14:37:46;3.75;;;3.15;;
35366;SDS011;21465;52.278;20.962;2023-07-13T14:40:16;3.53;;;3.22;;
35366;SDS011;21465;52.278;20.962;2023-07-13T14:42:43;4.20;;;3.90;;
35366;SDS011;21465;52.278;20.962;2023-07-13T14:45:15;4.28;;;3.72;;
35366;SDS011;21465;52.278;20.962;2023-07-13T14:47:44;4.10;;;3.67;;
35366;SDS011;21465;52.278;20.962;2023-07-13T14:50:14;4.80;;;4.40;;
35366;SDS011;21465;52.278;20.962;2023-07-13T14:52:42;5.65;;;4.50;;
35366;SDS011;21465;52.278;20.962;2023-07-13T14:55:15;4.93;;;4.43;;
35366;SDS011;21465;52.278;20.962;2023-07-13T14:57:42;5.20;;;4.70;;
35366;SDS011;21465;52.278;20.962;2023-07-13T15:00:14;5.18;;;4.78;;
35366;SDS011;21465;52.278;20.962;2023-07-13T15:02:45;5.80;;;5.30;;
35366;SDS011;21465;52.278;20.962;2023-07-13T15:05:17;5.65;;;5.00;;
35366;SDS011;21465;52.278;20.962;2023-07-13T15:07:48;4.90;;;4.50;;
35366;SDS011;21465;52.278;20.962;2023-07-13T15:10:17;5.75;;;5.15;;
35366;SDS011;21465;52.278;20.962;2023-07-13T15:12:47;5.72;;;5.20;;
35366;SDS011;21465;52.278;20.962;2023-07-13T15:15:19;6.30;;;5.78;;
35366;SDS011;21465;52.278;20.962;2023-07-13T15:17:46;4.80;;;4.38;;
35366;SDS011;21465;52.278;20.962;2023-07-13T15:20:21;5.88;;;5.32;;
35366;SDS011;21465;52.278;20.962;2023-07-13T15:23:00;5.22;;;4.75;;
35366;SDS011;21465;52.278;20.962;2023-07-13T15:25:27;5.00;;;4.50;;
35366;SDS011;21465;52.278;20.962;2023-07-13T15:28:02;4.85;;;4.45;;
35366;SDS011;21465;52.278;20.962;2023-07-13T15:30:31;7.53;;;5.10;;
35366;SDS011;21465;52.278;20.962;2023-07-13T15:33:10;7.22;;;4.47;;
35366;SDS011;21465;52.278;20.962;2023-07-13T15:35:39;4.80;;;4.40;;
35366;SDS011;21465;52.278;20.962;2023-07-13T15:38:27;4.15;;;3.85;;
35366;SDS011;21465;52.278;20.962;2023-07-13T15:40:57;4.55;;;3.80;;
35366;SDS011;21465;52.278;20.962;2023-07-13T15:43:23;3.88;;;3.58;;
35366;SDS011;21465;52.278;20.962;2023-07-13T15:45:49;4.38;;;4.07;;
35366;SDS011;21465;52.278;20.962;2023-07-13T15:48:17;4.03;;;3.67;;
35366;SDS011;21465;52.278;20.962;2023-07-13T15:50:49;4.40;;;4.00;;
35366;SDS011;21465;52.278;20.962;2023-07-13T15:53:19;4.55;;;4.20;;
35366;SDS011;21465;52.278;20.962;2023-07-13T15:55:46;4.85;;;4.05;;
35366;SDS011;21465;52.278;20.962;2023-07-13T15:58:12;6.05;;;4.47;;
35366;SDS011;21465;52.278;20.962;2023-07-13T16:00:41;5.13;;;4.63;;
35366;SDS011;21465;52.278;20.962;2023-07-13T16:03:09;4.10;;;3.70;;
35366;SDS011;21465;52.278;20.962;2023-07-13T16:05:35;4.28;;;3.97;;
35366;SDS011;21465;52.278;20.962;2023-07-13T16:08:01;4.35;;;4.05;;
35366;SDS011;21465;52.278;20.962;2023-07-13T16:10:31;4.20;;;3.83;;
35366;SDS011;21465;52.278;20.962;2023-07-13T16:13:00;3.85;;;3.65;;
35366;SDS011;21465;52.278;20.962;2023-07-13T16:15:26;4.18;;;3.88;;
35366;SDS011;21465;52.278;20.962;2023-07-13T16:17:53;4.68;;;4.35;;
35366;SDS011;21465;52.278;20.962;2023-07-13T16:20:19;4.53;;;3.85;;
35366;SDS011;21465;52.278;20.962;2023-07-13T16:22:47;4.95;;;4.00;;
35366;SDS011;21465;52.278;20.962;2023-07-13T16:25:15;5.25;;;4.72;;
35366;SDS011;21465;52.278;20.962;2023-07-13T16:27:47;5.05;;;4.57;;
35366;SDS011;21465;52.278;20.962;2023-07-13T16:30:21;4.25;;;3.50;;
35366;SDS011;21465;52.278;20.962;2023-07-13T16:32:50;4.63;;;4.22;;
35366;SDS011;21465;52.278;20.962;2023-07-13T16:35:20;5.75;;;4.00;;
35366;SDS011;21465;52.278;20.962;2023-07-13T16:37:47;4.47;;;4.07;;
35366;SDS011;21465;52.278;20.962;2023-07-13T16:40:22;4.43;;;4.05;;
35366;SDS011;21465;52.278;20.962;2023-07-13T16:42:56;4.38;;;3.97;;
35366;SDS011;21465;52.278;20.962;2023-07-13T16:45:23;4.05;;;3.75;;
35366;SDS011;21465;52.278;20.962;2023-07-13T16:47:51;5.38;;;3.72;;
35366;SDS011;21465;52.278;20.962;2023-07-13T16:50:21;4.10;;;3.80;;
35366;SDS011;21465;52.278;20.962;2023-07-13T16:52:49;4.20;;;3.80;;
35366;SDS011;21465;52.278;20.962;2023-07-13T16:55:15;3.40;;;3.20;;
35366;SDS011;21465;52.278;20.962;2023-07-13T16:57:45;4.57;;;4.18;;
35366;SDS011;21465;52.278;20.962;2023-07-13T17:02:54;3.78;;;3.47;;
35366;SDS011;21465;52.278;20.962;2023-07-13T17:05:27;4.13;;;3.83;;
35366;SDS011;21465;52.278;20.962;2023-07-13T17:08:16;4.25;;;3.80;;
35366;SDS011;21465;52.278;20.962;2023-07-13T17:10:47;3.90;;;3.60;;
35366;SDS011;21465;52.278;20.962;2023-07-13T17:13:15;4.75;;;4.35;;
35366;SDS011;21465;52.278;20.962;2023-07-13T17:18:28;3.83;;;3.45;;
35366;SDS011;21465;52.278;20.962;2023-07-13T17:21:10;3.70;;;3.50;;
35366;SDS011;21465;52.278;20.962;2023-07-13T17:23:45;3.22;;;3.03;;
35366;SDS011;21465;52.278;20.962;2023-07-13T17:26:29;4.07;;;3.83;;
35366;SDS011;21465;52.278;20.962;2023-07-13T17:29:47;3.60;;;3.40;;
35366;SDS011;21465;52.278;20.962;2023-07-13T17:32:22;3.80;;;3.50;;
35366;SDS011;21465;52.278;20.962;2023-07-13T17:40:54;3.63;;;3.33;;
35366;SDS011;21465;52.278;20.962;2023-07-13T17:44:19;3.17;;;2.80;;
35366;SDS011;21465;52.278;20.962;2023-07-13T17:47:01;3.17;;;2.88;;
35366;SDS011;21465;52.278;20.962;2023-07-13T17:52:33;2.88;;;2.67;;
35366;SDS011;21465;52.278;20.962;2023-07-13T17:55:21;3.28;;;3.05;;
35366;SDS011;21465;52.278;20.962;2023-07-13T17:57:47;3.42;;;3.17;;
35366;SDS011;21465;52.278;20.962;2023-07-13T18:00:20;3.20;;;3.00;;
35366;SDS011;21465;52.278;20.962;2023-07-13T18:03:00;3.50;;;3.20;;
35366;SDS011;21465;52.278;20.962;2023-07-13T18:05:29;3.15;;;2.95;;
35366;SDS011;21465;52.278;20.962;2023-07-13T18:07:56;3.03;;;2.72;;
35366;SDS011;21465;52.278;20.962;2023-07-13T18:10:22;3.55;;;3.33;;
35366;SDS011;21465;52.278;20.962;2023-07-13T18:12:52;3.85;;;3.55;;
35366;SDS011;21465;52.278;20.962;2023-07-13T18:15:23;3.75;;;3.20;;
35366;SDS011;21465;52.278;20.962;2023-07-13T18:17:50;2.70;;;2.50;;
35366;SDS011;21465;52.278;20.962;2023-07-13T18:20:20;3.85;;;3.55;;
35366;SDS011;21465;52.278;20.962;2023-07-13T18:22:49;3.28;;;3.08;;
35366;SDS011;21465;52.278;20.962;2023-07-13T18:25:16;2.72;;;2.50;;
35366;SDS011;21465;52.278;20.962;2023-07-13T18:28:05;3.33;;;3.03;;
35366;SDS011;21465;52.278;20.962;2023-07-13T18:30:33;3.10;;;2.90;;
35366;SDS011;21465;52.278;20.962;2023-07-13T18:33:01;3.50;;;3.28;;
35366;SDS011;21465;52.278;20.962;2023-07-13T18:35:40;2.90;;;2.70;;
35366;SDS011;21465;52.278;20.962;2023-07-13T18:38:07;3.60;;;3.30;;
35366;SDS011;21465;52.278;20.962;2023-07-13T18:40:41;4.68;;;2.90;;
35366;SDS011;21465;52.278;20.962;2023-07-13T18:43:07;3.33;;;2.95;;
35366;SDS011;21465;52.278;20.962;2023-07-13T18:45:34;3.20;;;2.90;;
35366;SDS011;21465;52.278;20.962;2023-07-13T18:48:00;3.20;;;2.60;;
35366;SDS011;21465;52.278;20.962;2023-07-13T18:50:31;4.25;;;3.33;;
35366;SDS011;21465;52.278;20.962;2023-07-13T18:52:59;3.20;;;2.90;;
35366;SDS011;21465;52.278;20.962;2023-07-13T18:55:25;2.95;;;2.75;;
35366;SDS011;21465;52.278;20.962;2023-07-13T18:57:54;2.88;;;2.67;;
35366;SDS011;21465;52.278;20.962;2023-07-13T19:00:23;2.95;;;2.75;;
35366;SDS011;21465;52.278;20.962;2023-07-13T19:02:56;2.75;;;2.55;;
35366;SDS011;21465;52.278;20.962;2023-07-13T19:05:34;3.25;;;3.00;;
35366;SDS011;21465;52.278;20.962;2023-07-13T19:08:00;3.00;;;2.80;;
35366;SDS011;21465;52.278;20.962;2023-07-13T19:10:26;3.10;;;2.90;;
35366;SDS011;21465;52.278;20.962;2023-07-13T19:12:54;3.45;;;3.03;;
35366;SDS011;21465;52.278;20.962;2023-07-13T19:15:32;2.97;;;2.67;;
35366;SDS011;21465;52.278;20.962;2023-07-13T19:17:59;3.03;;;2.72;;
35366;SDS011;21465;52.278;20.962;2023-07-13T19:20:26;3.10;;;2.90;;
35366;SDS011;21465;52.278;20.962;2023-07-13T19:22:54;3.28;;;3.08;;
35366;SDS011;21465;52.278;20.962;2023-07-13T19:25:25;3.07;;;2.87;;
35366;SDS011;21465;52.278;20.962;2023-07-13T19:28:35;3.95;;;3.53;;
35366;SDS011;21465;52.278;20.962;2023-07-13T19:31:03;3.53;;;3.22;;
35366;SDS011;21465;52.278;20.962;2023-07-13T19:33:30;3.88;;;3.58;;
35366;SDS011;21465;52.278;20.962;2023-07-13T19:35:56;3.40;;;3.20;;
35366;SDS011;21465;52.278;20.962;2023-07-13T19:38:24;3.63;;;3.33;;
35366;SDS011;21465;52.278;20.962;2023-07-13T19:40:51;3.90;;;3.60;;
35366;SDS011;21465;52.278;20.962;2023-07-13T19:43:21;3.25;;;2.97;;
35366;SDS011;21465;52.278;20.962;2023-07-13T19:45:50;3.70;;;3.50;;
35366;SDS011;21465;52.278;20.962;2023-07-13T19:48:17;3.83;;;3.53;;
35366;SDS011;21465;52.278;20.962;2023-07-13T19:50:44;4.15;;;3.85;;
35366;SDS011;21465;52.278;20.962;2023-07-13T19:53:25;4.05;;;3.47;;
35366;SDS011;21465;52.278;20.962;2023-07-13T19:55:51;4.05;;;3.60;;
35366;SDS011;21465;52.278;20.962;2023-07-13T19:58:17;4.93;;;4.53;;
35366;SDS011;21465;52.278;20.962;2023-07-13T20:00:43;5.53;;;4.30;;
35366;SDS011;21465;52.278;20.962;2023-07-13T20:03:08;5.13;;;4.60;;
35366;SDS011;21465;52.278;20.962;2023-07-13T20:05:35;4.40;;;4.10;;
35366;SDS011;21465;52.278;20.962;2023-07-13T20:08:09;4.80;;;4.40;;
35366;SDS011;21465;52.278;20.962;2023-07-13T20:10:40;4.40;;;4.10;;
35366;SDS011;21465;52.278;20.962;2023-07-13T20:13:08;4.47;;;4.07;;
35366;SDS011;21465;52.278;20.962;2023-07-13T20:15:39;4.70;;;4.40;;
35366;SDS011;21465;52.278;20.962;2023-07-13T20:18:05;4.70;;;4.40;;
35366;SDS011;21465;52.278;20.962;2023-07-13T20:20:37;4.50;;;4.20;;
35366;SDS011;21465;52.278;20.962;2023-07-13T20:23:09;4.93;;;4.38;;
35366;SDS011;21465;52.278;20.962;2023-07-13T20:25:37;4.15;;;3.85;;
35366;SDS011;21465;52.278;20.962;2023-07-13T20:28:04;3.70;;;3.40;;
35366;SDS011;21465;52.278;20.962;2023-07-13T20:30:30;5.63;;;4.05;;
35366;SDS011;21465;52.278;20.962;2023-07-13T20:33:02;5.03;;;4.35;;
35366;SDS011;21465;52.278;20.962;2023-07-13T20:35:31;4.22;;;3.90;;
35366;SDS011;21465;52.278;20.962;2023-07-13T20:37:59;3.25;;;3.05;;
35366;SDS011;21465;52.278;20.962;2023-07-13T20:40:27;3.58;;;3.28;;
35366;SDS011;21465;52.278;20.962;2023-07-13T20:42:54;3.60;;;3.40;;
35366;SDS011;21465;52.278;20.962;2023-07-13T20:45:21;3.20;;;3.00;;
35366;SDS011;21465;52.278;20.962;2023-07-13T20:47:49;3.60;;;3.30;;
35366;SDS011;21465;52.278;20.962;2023-07-13T20:50:30;3.95;;;3.65;;
35366;SDS011;21465;52.278;20.962;2023-07-13T20:52:56;3.83;;;3.30;;
35366;SDS011;21465;52.278;20.962;2023-07-13T20:55:29;3.70;;;3.30;;
35366;SDS011;21465;52.278;20.962;2023-07-13T20:58:01;3.25;;;3.05;;
35366;SDS011;21465;52.278;20.962;2023-07-13T21:00:27;3.47;;;3.15;;
35366;SDS011;21465;52.278;20.962;2023-07-13T21:03:01;3.72;;;3.42;;
35366;SDS011;21465;52.278;20.962;2023-07-13T21:05:34;3.17;;;2.92;;
35366;SDS011;21465;52.278;20.962;2023-07-13T21:08:04;3.30;;;3.10;;
35366;SDS011;21465;52.278;20.962;2023-07-13T21:10:39;3.30;;;3.10;;
35366;SDS011;21465;52.278;20.962;2023-07-13T21:13:05;3.35;;;3.15;;
35366;SDS011;21465;52.278;20.962;2023-07-13T21:15:33;3.67;;;3.40;;
35366;SDS011;21465;52.278;20.962;2023-07-13T21:18:00;3.65;;;3.35;;
35366;SDS011;21465;52.278;20.962;2023-07-13T21:20:29;3.10;;;2.90;;
35366;SDS011;21465;52.278;20.962;2023-07-13T21:22:57;3.80;;;3.50;;
35366;SDS011;21465;52.278;20.962;2023-07-13T21:25:24;3.75;;;3.53;;
35366;SDS011;21465;52.278;20.962;2023-07-13T21:27:53;3.83;;;3.47;;
35366;SDS011;21465;52.278;20.962;2023-07-13T21:30:21;3.83;;;3.53;;
35366;SDS011;21465;52.278;20.962;2023-07-13T21:32:50;3.58;;;3.38;;
35366;SDS011;21465;52.278;20.962;2023-07-13T21:35:28;4.13;;;3.70;;
35366;SDS011;21465;52.278;20.962;2023-07-13T21:37:58;4.32;;;3.63;;
35366;SDS011;21465;52.278;20.962;2023-07-13T21:40:25;4.22;;;3.92;;
35366;SDS011;21465;52.278;20.962;2023-07-13T21:42:52;4.28;;;3.97;;
35366;SDS011;21465;52.278;20.962;2023-07-13T21:45:18;4.45;;;4.07;;
35366;SDS011;21465;52.278;20.962;2023-07-13T21:47:47;5.47;;;4.18;;
35366;SDS011;21465;52.278;20.962;2023-07-13T21:50:14;4.75;;;4.43;;
35366;SDS011;21465;52.278;20.962;2023-07-13T21:52:39;4.15;;;3.85;;
35366;SDS011;21465;52.278;20.962;2023-07-13T21:58:00;4.72;;;4.32;;
35366;SDS011;21465;52.278;20.962;2023-07-13T22:00:26;4.80;;;4.50;;
35366;SDS011;21465;52.278;20.962;2023-07-13T22:02:53;4.95;;;4.65;;
35366;SDS011;21465;52.278;20.962;2023-07-13T22:05:22;4.57;;;4.28;;
35366;SDS011;21465;52.278;20.962;2023-07-13T22:07:48;5.05;;;4.57;;
35366;SDS011;21465;52.278;20.962;2023-07-13T22:10:16;4.55;;;4.25;;
35366;SDS011;21465;52.278;20.962;2023-07-13T22:12:46;5.00;;;4.60;;
35366;SDS011;21465;52.278;20.962;2023-07-13T22:15:13;5.38;;;4.97;;
35366;SDS011;21465;52.278;20.962;2023-07-13T22:17:47;5.45;;;5.05;;
35366;SDS011;21465;52.278;20.962;2023-07-13T22:20:15;4.57;;;4.28;;
35366;SDS011;21465;52.278;20.962;2023-07-13T22:22:43;21.50;;;5.80;;
35366;SDS011;21465;52.278;20.962;2023-07-13T22:25:09;5.40;;;5.00;;
35366;SDS011;21465;52.278;20.962;2023-07-13T22:27:34;5.45;;;4.95;;
35366;SDS011;21465;52.278;20.962;2023-07-13T22:30:00;5.15;;;4.85;;
35366;SDS011;21465;52.278;20.962;2023-07-13T22:32:26;5.45;;;5.05;;
35366;SDS011;21465;52.278;20.962;2023-07-13T22:34:52;5.43;;;4.90;;
35366;SDS011;21465;52.278;20.962;2023-07-13T22:37:18;5.13;;;4.82;;
35366;SDS011;21465;52.278;20.962;2023-07-13T22:39:45;5.10;;;4.80;;
35366;SDS011;21465;52.278;20.962;2023-07-13T22:42:11;5.32;;;4.82;;
35366;SDS011;21465;52.278;20.962;2023-07-13T22:44:36;5.25;;;4.95;;
35366;SDS011;21465;52.278;20.962;2023-07-13T22:47:04;4.82;;;4.40;;
35366;SDS011;21465;52.278;20.962;2023-07-13T22:49:31;5.32;;;4.93;;
35366;SDS011;21465;52.278;20.962;2023-07-13T22:51:59;4.78;;;4.47;;
35366;SDS011;21465;52.278;20.962;2023-07-13T22:54:26;5.35;;;4.95;;
35366;SDS011;21465;52.278;20.962;2023-07-13T22:56:54;5.32;;;4.82;;
35366;SDS011;21465;52.278;20.962;2023-07-13T22:59:20;5.57;;;5.10;;
35366;SDS011;21465;52.278;20.962;2023-07-13T23:01:45;4.85;;;4.55;;
35366;SDS011;21465;52.278;20.962;2023-07-13T23:04:23;4.75;;;4.43;;
35366;SDS011;21465;52.278;20.962;2023-07-13T23:06:50;5.43;;;5.10;;
35366;SDS011;21465;52.278;20.962;2023-07-13T23:09:18;5.05;;;4.70;;
35366;SDS011;21465;52.278;20.962;2023-07-13T23:11:45;4.82;;;4.53;;
35366;SDS011;21465;52.278;20.962;2023-07-13T23:14:11;5.00;;;4.50;;
35366;SDS011;21465;52.278;20.962;2023-07-13T23:16:39;4.65;;;4.25;;
35366;SDS011;21465;52.278;20.962;2023-07-13T23:22:08;5.00;;;4.70;;
35366;SDS011;21465;52.278;20.962;2023-07-13T23:24:49;4.55;;;4.35;;
35366;SDS011;21465;52.278;20.962;2023-07-13T23:27:16;5.07;;;4.70;;
35366;SDS011;21465;52.278;20.962;2023-07-13T23:29:43;9.30;;;5.30;;
35366;SDS011;21465;52.278;20.962;2023-07-13T23:32:10;5.07;;;4.70;;
35366;SDS011;21465;52.278;20.962;2023-07-13T23:34:36;4.97;;;4.63;;
35366;SDS011;21465;52.278;20.962;2023-07-13T23:37:01;5.18;;;4.78;;
35366;SDS011;21465;52.278;20.962;2023-07-13T23:39:27;4.30;;;4.00;;
35366;SDS011;21465;52.278;20.962;2023-07-13T23:41:55;4.57;;;4.28;;
35366;SDS011;21465;52.278;20.962;2023-07-13T23:44:21;4.40;;;4.10;;
35366;SDS011;21465;52.278;20.962;2023-07-13T23:46:48;4.25;;;3.95;;
35366;SDS011;21465;52.278;20.962;2023-07-13T23:49:19;3.70;;;3.42;;
35366;SDS011;21465;52.278;20.962;2023-07-13T23:51:50;4.03;;;3.70;;
35366;SDS011;21465;52.278;20.962;2023-07-13T23:54:18;4.20;;;3.90;;
35366;SDS011;21465;52.278;20.962;2023-07-13T23:56:43;5.45;;;5.05;;
35366;SDS011;21465;52.278;20.962;2023-07-13T23:59:09;4.55;;;4.25;;
